Time;durP1;ratioP1;P1;durP2;ratioP2;P2;SDS_P1;SDS_P2;PMS_P1;PMS_P2;Temp;Humidity;BMP_temperature;BMP_pressure;BME280_temperature;BME280_humidity;BME280_pressure;Samples;Min_cycle;Max_cycle;Signal;HPM_P1;HPM_P2
2024/02/21 00:00:45;;;;;;;56.92;21.10;;;9.00;99.90;;;;;;5063225;28;20025;-71
2024/02/21 00:03:11;;;;;;;55.88;21.55;;;9.00;99.90;;;;;;5063886;28;20497;-72
2024/02/21 00:05:36;;;;;;;56.15;21.67;;;9.00;99.90;;;;;;5062590;28;20417;-70
2024/02/21 00:08:03;;;;;;;63.47;21.42;;;9.00;99.90;;;;;;5062733;28;20056;-72
2024/02/21 00:10:28;;;;;;;55.40;20.73;;;9.00;99.90;;;;;;5062141;28;20036;-72
2024/02/21 00:12:54;;;;;;;57.55;21.60;;;9.00;99.90;;;;;;5062990;28;20080;-72
2024/02/21 00:15:21;;;;;;;51.78;21.80;;;9.00;99.90;;;;;;5062805;28;20088;-70
2024/02/21 00:17:46;;;;;;;60.67;22.67;;;9.00;99.90;;;;;;5060746;28;20021;-73
2024/02/21 00:20:12;;;;;;;61.03;23.02;;;9.00;99.90;;;;;;5062766;28;20524;-69
2024/02/21 00:22:38;;;;;;;50.20;18.45;;;9.10;99.90;;;;;;5062988;28;20039;-71
2024/02/21 00:25:03;;;;;;;55.97;21.15;;;9.10;99.90;;;;;;5062245;28;20037;-71
2024/02/21 00:27:29;;;;;;;53.25;22.17;;;9.10;99.90;;;;;;5062695;28;20024;-69
2024/02/21 00:29:54;;;;;;;57.38;21.52;;;9.10;99.90;;;;;;5061960;28;20066;-72
2024/02/21 00:32:20;;;;;;;55.00;23.13;;;9.10;99.90;;;;;;5062883;28;20085;-70
2024/02/21 00:34:46;;;;;;;60.67;24.50;;;9.10;99.90;;;;;;5062543;28;20152;-70
2024/02/21 00:37:12;;;;;;;57.00;24.02;;;9.10;99.90;;;;;;5062536;28;20025;-70
2024/02/21 00:39:37;;;;;;;64.50;24.95;;;9.10;99.90;;;;;;5062911;28;20110;-71
2024/02/21 00:42:03;;;;;;;58.15;22.75;;;9.10;99.90;;;;;;5062267;28;20109;-71
2024/02/21 00:44:29;;;;;;;62.25;25.15;;;9.10;99.90;;;;;;5062007;28;20027;-71
2024/02/21 00:46:55;;;;;;;70.80;26.58;;;9.10;99.90;;;;;;5062410;28;20048;-73
2024/02/21 00:49:20;;;;;;;74.45;27.50;;;9.10;99.90;;;;;;5060988;28;20017;-69
2024/02/21 00:51:46;;;;;;;69.25;26.98;;;9.10;99.90;;;;;;5062271;28;20033;-69
2024/02/21 00:54:12;;;;;;;70.25;28.63;;;9.10;99.90;;;;;;5061801;28;20033;-70
2024/02/21 00:56:37;;;;;;;70.90;25.35;;;9.10;99.90;;;;;;5061180;28;20028;-71
2024/02/21 00:59:03;;;;;;;69.78;25.10;;;9.10;99.90;;;;;;5060584;28;20068;-72
2024/02/21 01:01:29;;;;;;;80.00;28.75;;;9.10;99.90;;;;;;5059964;28;20025;-69
2024/02/21 01:03:54;;;;;;;74.10;28.17;;;9.10;99.90;;;;;;5060941;28;20383;-68
2024/02/21 01:06:20;;;;;;;69.97;29.95;;;9.10;99.90;;;;;;5060747;28;20058;-70
2024/02/21 01:08:47;;;;;;;71.03;28.73;;;9.10;99.90;;;;;;5060331;28;20049;-71
2024/02/21 01:11:14;;;;;;;68.63;28.88;;;9.10;99.90;;;;;;5061914;28;20021;-71
2024/02/21 01:13:40;;;;;;;67.75;25.08;;;9.10;99.90;;;;;;5062258;28;20041;-72
2024/02/21 01:16:06;;;;;;;73.53;28.10;;;9.10;99.90;;;;;;5062043;28;20469;-70
2024/02/21 01:18:33;;;;;;;72.82;27.80;;;9.10;99.90;;;;;;5061665;28;20017;-72
2024/02/21 01:20:58;;;;;;;61.40;27.35;;;9.10;99.90;;;;;;5061899;28;20028;-70
2024/02/21 01:23:24;;;;;;;62.15;26.52;;;9.20;99.90;;;;;;5061935;28;20021;-71
2024/02/21 01:25:51;;;;;;;66.45;28.60;;;9.20;99.90;;;;;;5060369;28;20123;-70
2024/02/21 01:28:16;;;;;;;75.60;28.83;;;9.20;99.90;;;;;;5061982;28;20028;-70
2024/02/21 01:30:42;;;;;;;64.82;25.60;;;9.20;99.90;;;;;;5061561;28;20033;-71
2024/02/21 01:33:08;;;;;;;70.88;27.10;;;9.20;99.90;;;;;;5060175;28;20021;-70
2024/02/21 01:35:34;;;;;;;65.40;25.88;;;9.20;99.90;;;;;;5060981;28;20566;-69
2024/02/21 01:38:00;;;;;;;64.65;24.50;;;9.20;99.90;;;;;;5061418;28;20059;-70
2024/02/21 01:40:25;;;;;;;60.42;21.73;;;9.20;99.90;;;;;;5061133;28;20094;-71
2024/02/21 01:42:53;;;;;;;66.15;26.85;;;9.20;99.90;;;;;;5059503;28;20043;-70
2024/02/21 01:45:19;;;;;;;60.70;24.67;;;9.20;99.90;;;;;;5059469;28;20024;-70
2024/02/21 01:47:45;;;;;;;61.88;23.75;;;9.20;99.90;;;;;;5059833;28;20025;-71
2024/02/21 01:50:14;;;;;;;53.13;24.88;;;9.20;99.90;;;;;;5060067;28;20035;-73
2024/02/21 01:52:39;;;;;;;66.93;26.95;;;9.10;99.90;;;;;;5059721;28;20056;-71
2024/02/21 01:55:06;;;;;;;62.85;26.00;;;9.20;99.90;;;;;;5059433;28;20041;-72
2024/02/21 01:57:32;;;;;;;67.68;26.35;;;9.20;99.90;;;;;;5059532;28;20409;-70
2024/02/21 01:59:57;;;;;;;65.32;25.35;;;9.20;99.90;;;;;;5060614;28;20024;-71
2024/02/21 02:02:24;;;;;;;68.70;25.85;;;9.20;99.90;;;;;;5061480;28;20021;-71
2024/02/21 02:04:51;;;;;;;58.67;25.45;;;9.20;99.90;;;;;;5061305;28;20017;-70
2024/02/21 02:07:17;;;;;;;65.05;25.40;;;9.10;99.90;;;;;;5060969;28;20017;-69
2024/02/21 02:09:43;;;;;;;56.95;22.10;;;9.10;99.90;;;;;;5061530;28;20080;-72
2024/02/21 02:12:09;;;;;;;54.00;23.30;;;9.10;99.90;;;;;;5061495;28;20054;-72
2024/02/21 02:14:34;;;;;;;63.45;23.50;;;9.10;99.90;;;;;;5059734;28;20044;-71
2024/02/21 02:17:00;;;;;;;52.70;22.67;;;9.10;99.90;;;;;;5060813;28;20017;-71
2024/02/21 02:19:26;;;;;;;57.22;23.15;;;9.10;99.90;;;;;;5061122;28;20021;-71
2024/02/21 02:21:56;;;;;;;51.17;23.20;;;9.10;99.90;;;;;;5061260;28;20021;-71
2024/02/21 02:24:24;;;;;;;60.92;25.38;;;9.10;99.90;;;;;;5060074;28;20017;-71
2024/02/21 02:26:49;;;;;;;50.92;20.75;;;9.10;99.90;;;;;;5060568;28;20025;-71
2024/02/21 02:29:16;;;;;;;58.10;23.30;;;9.20;99.90;;;;;;5061384;28;20021;-71
2024/02/21 02:31:42;;;;;;;57.22;23.50;;;9.10;99.90;;;;;;5059198;28;20063;-71
2024/02/21 02:34:07;;;;;;;60.25;23.92;;;9.10;99.90;;;;;;5060819;28;20214;-70
2024/02/21 02:36:33;;;;;;;55.78;22.00;;;9.10;99.90;;;;;;5060811;28;20532;-72
2024/02/21 02:38:59;;;;;;;54.55;22.75;;;9.20;99.90;;;;;;5061135;28;20052;-71
2024/02/21 02:41:25;;;;;;;62.75;22.88;;;9.20;99.90;;;;;;5060968;28;20032;-70
2024/02/21 02:43:50;;;;;;;63.95;23.67;;;9.20;99.90;;;;;;5059921;28;20037;-71
2024/02/21 02:46:16;;;;;;;54.38;23.67;;;9.20;99.90;;;;;;5059933;28;20037;-70
2024/02/21 02:48:42;;;;;;;62.72;23.00;;;9.10;99.90;;;;;;5060951;28;20495;-71
2024/02/21 02:51:08;;;;;;;58.28;21.80;;;9.20;99.90;;;;;;5062390;28;20027;-72
2024/02/21 02:53:33;;;;;;;59.78;23.50;;;9.20;99.90;;;;;;5064478;28;20068;-72
2024/02/21 02:55:59;;;;;;;50.88;21.60;;;9.20;99.90;;;;;;5064334;28;20032;-71
2024/02/21 02:58:24;;;;;;;55.13;20.67;;;9.10;99.90;;;;;;5064568;28;20032;-71
2024/02/21 03:00:50;;;;;;;61.83;22.60;;;9.20;99.90;;;;;;5062668;28;20082;-71
2024/02/21 03:03:15;;;;;;;60.40;23.08;;;9.20;99.90;;;;;;5064319;28;20598;-72
2024/02/21 03:05:41;;;;;;;53.15;21.77;;;9.20;99.90;;;;;;5064543;28;20088;-73
2024/02/21 03:08:08;;;;;;;57.67;22.05;;;9.20;99.90;;;;;;5062565;28;20057;-70
2024/02/21 03:10:33;;;;;;;50.20;20.70;;;9.20;99.90;;;;;;5064888;28;20025;-71
2024/02/21 03:12:59;;;;;;;64.25;22.58;;;9.20;99.90;;;;;;5064513;28;20028;-70
2024/02/21 03:15:25;;;;;;;62.50;22.90;;;9.20;99.90;;;;;;5063759;28;20036;-72
2024/02/21 03:17:50;;;;;;;58.30;22.85;;;9.20;99.90;;;;;;5064146;28;20024;-72
2024/02/21 03:20:16;;;;;;;53.25;22.02;;;9.10;99.90;;;;;;5064226;28;20144;-74
2024/02/21 03:22:42;;;;;;;53.92;22.02;;;9.10;99.90;;;;;;5063984;28;20052;-72
2024/02/21 03:25:09;;;;;;;55.63;22.17;;;9.10;99.90;;;;;;5064454;28;20080;-72
2024/02/21 03:27:35;;;;;;;59.25;22.55;;;9.00;99.90;;;;;;5064177;28;20052;-71
2024/02/21 03:30:00;;;;;;;59.80;23.58;;;9.00;99.90;;;;;;5062210;28;20033;-71
2024/02/21 03:32:28;;;;;;;61.65;23.55;;;9.00;99.90;;;;;;5062157;28;20035;-71
2024/02/21 03:34:54;;;;;;;62.67;21.77;;;9.00;99.90;;;;;;5062889;28;20025;-69
2024/02/21 03:37:20;;;;;;;65.78;24.23;;;9.00;99.90;;;;;;5062060;28;20008;-73
2024/02/21 03:39:46;;;;;;;72.55;25.30;;;8.90;99.90;;;;;;5062274;28;20047;-72
2024/02/21 03:42:11;;;;;;;59.17;24.38;;;8.80;99.90;;;;;;5062821;28;20021;-72
2024/02/21 03:44:37;;;;;;;62.15;23.75;;;8.80;99.90;;;;;;5062569;28;20482;-70
2024/02/21 03:47:03;;;;;;;62.35;23.50;;;8.80;99.90;;;;;;5062882;28;20036;-71
2024/02/21 03:49:28;;;;;;;72.22;25.35;;;8.70;99.90;;;;;;5062656;28;20029;-71
2024/02/21 03:51:54;;;;;;;66.63;26.73;;;8.70;99.90;;;;;;5061184;28;20024;-70
2024/02/21 03:54:20;;;;;;;77.70;25.02;;;8.70;99.90;;;;;;5063044;28;20036;-70
2024/02/21 03:56:47;;;;;;;67.72;24.50;;;8.70;99.90;;;;;;5062487;28;20083;-71
2024/02/21 03:59:13;;;;;;;67.38;25.25;;;8.60;99.90;;;;;;5062128;28;20113;-71
2024/02/21 04:01:39;;;;;;;70.07;26.13;;;8.60;99.90;;;;;;5062778;28;20036;-70
2024/02/21 04:04:04;;;;;;;71.82;27.17;;;8.60;99.90;;;;;;5060319;28;20051;-72
2024/02/21 04:06:30;;;;;;;70.88;26.00;;;8.60;99.90;;;;;;5060670;28;20028;-74
2024/02/21 04:08:56;;;;;;;57.92;21.70;;;8.60;99.90;;;;;;5061660;28;20056;-74
2024/02/21 04:11:22;;;;;;;79.85;26.65;;;8.50;99.90;;;;;;5060506;28;20029;-70
2024/02/21 04:13:49;;;;;;;61.38;22.33;;;8.50;99.90;;;;;;5058216;28;20044;-74
2024/02/21 04:16:15;;;;;;;71.70;25.67;;;8.50;99.90;;;;;;5061877;28;20024;-74
2024/02/21 04:18:42;;;;;;;80.80;26.73;;;8.50;99.90;;;;;;5062040;28;20044;-70
2024/02/21 04:21:09;;;;;;;70.90;25.08;;;8.50;99.90;;;;;;5062475;28;20033;-70
2024/02/21 04:23:35;;;;;;;68.90;24.60;;;8.50;99.90;;;;;;5061626;28;20032;-72
2024/02/21 04:26:01;;;;;;;69.30;23.92;;;8.50;99.90;;;;;;5061448;28;20021;-72
2024/02/21 04:28:26;;;;;;;51.83;18.63;;;8.40;99.90;;;;;;5061147;28;20017;-71
2024/02/21 04:30:52;;;;;;;58.15;22.30;;;8.40;99.90;;;;;;5061615;28;20072;-71
2024/02/21 04:33:18;;;;;;;64.75;23.02;;;8.40;99.90;;;;;;5059437;28;20039;-73
2024/02/21 04:35:44;;;;;;;57.58;22.67;;;8.40;99.90;;;;;;5062146;28;20540;-76
2024/02/21 04:38:10;;;;;;;54.05;20.55;;;8.40;99.90;;;;;;5061914;28;20028;-75
2024/02/21 04:40:35;;;;;;;50.67;18.05;;;8.40;99.90;;;;;;5058431;28;20036;-73
2024/02/21 04:43:01;;;;;;;61.08;21.55;;;8.40;99.90;;;;;;5060828;28;20117;-72
2024/02/21 04:45:26;;;;;;;60.47;21.73;;;8.40;99.90;;;;;;5062283;28;20032;-74
2024/02/21 04:47:52;;;;;;;62.70;22.95;;;8.40;99.90;;;;;;5060684;28;20036;-75
2024/02/21 04:50:17;;;;;;;58.95;21.58;;;8.40;99.90;;;;;;5059977;28;20052;-74
2024/02/21 04:52:43;;;;;;;53.03;20.85;;;8.40;99.90;;;;;;5058682;28;20025;-75
2024/02/21 04:55:09;;;;;;;55.28;21.17;;;8.30;99.90;;;;;;5061296;28;20494;-76
2024/02/21 04:57:34;;;;;;;49.00;19.42;;;8.40;99.90;;;;;;5059808;28;20036;-75
2024/02/21 05:00:00;;;;;;;48.75;20.38;;;8.40;99.90;;;;;;5060508;28;20035;-75
2024/02/21 05:02:26;;;;;;;53.30;20.73;;;8.30;99.90;;;;;;5060716;28;20028;-71
2024/02/21 05:04:53;;;;;;;52.13;19.75;;;8.30;99.90;;;;;;5057351;28;20158;-74
2024/02/21 05:07:19;;;;;;;47.83;19.25;;;8.30;99.90;;;;;;5059264;28;20071;-72
2024/02/21 05:09:45;;;;;;;49.88;20.98;;;8.30;99.90;;;;;;5061394;28;20041;-72
2024/02/21 05:12:11;;;;;;;57.38;21.27;;;8.40;99.90;;;;;;5061595;28;20037;-74
2024/02/21 05:14:37;;;;;;;59.58;21.38;;;8.30;99.90;;;;;;5060766;28;20075;-73
2024/02/21 05:17:03;;;;;;;58.72;20.45;;;8.30;99.90;;;;;;5061990;28;20017;-71
2024/02/21 05:19:29;;;;;;;45.25;17.98;;;8.30;99.90;;;;;;5061793;28;20063;-71
2024/02/21 05:21:55;;;;;;;58.63;20.25;;;8.30;99.90;;;;;;5060164;28;20021;-71
2024/02/21 05:24:21;;;;;;;47.70;19.15;;;8.40;99.90;;;;;;5061931;28;20021;-71
2024/02/21 05:26:46;;;;;;;49.55;18.83;;;8.40;99.90;;;;;;5061693;28;20041;-72
2024/02/21 05:29:12;;;;;;;45.83;17.95;;;8.40;99.90;;;;;;5061681;28;20029;-71
2024/02/21 05:31:52;;;;;;;43.78;16.83;;;8.40;99.90;;;;;;5062026;28;20121;-72
2024/02/21 05:34:19;;;;;;;48.80;17.33;;;8.30;99.90;;;;;;5061500;28;20033;-72
2024/02/21 05:36:44;;;;;;;43.00;16.98;;;8.40;99.90;;;;;;5056119;28;20484;-72
2024/02/21 05:39:11;;;;;;;46.75;18.15;;;8.40;99.90;;;;;;5061401;28;20029;-72
2024/02/21 05:41:36;;;;;;;45.00;16.80;;;8.30;99.90;;;;;;5061436;28;20029;-70
2024/02/21 05:44:02;;;;;;;43.20;15.93;;;8.30;99.90;;;;;;5061528;28;20100;-71
2024/02/21 05:46:28;;;;;;;38.17;16.35;;;8.40;99.90;;;;;;5061704;28;20024;-71
2024/02/21 05:48:53;;;;;;;35.08;16.23;;;8.40;99.90;;;;;;5059983;28;20032;-71
2024/02/21 05:51:19;;;;;;;43.45;17.20;;;8.40;99.90;;;;;;5060676;28;20080;-73
2024/02/21 05:53:45;;;;;;;37.30;16.08;;;8.40;99.90;;;;;;5055630;28;20029;-73
2024/02/21 05:56:14;;;;;;;33.28;14.60;;;8.30;99.90;;;;;;5058374;28;20035;-71
2024/02/21 05:58:40;;;;;;;41.30;16.45;;;8.40;99.90;;;;;;5061455;28;20025;-74
2024/02/21 06:01:09;;;;;;;34.20;14.85;;;8.30;99.90;;;;;;5060650;28;20093;-71
2024/02/21 06:03:36;;;;;;;31.77;14.05;;;8.30;99.90;;;;;;5058146;28;20025;-70
2024/02/21 06:06:02;;;;;;;34.30;14.52;;;8.40;99.90;;;;;;5059020;28;20104;-70
2024/02/21 06:08:27;;;;;;;34.65;14.50;;;8.30;99.90;;;;;;5059060;28;20036;-72
2024/02/21 06:10:54;;;;;;;34.22;14.68;;;8.30;99.90;;;;;;5056252;28;20084;-70
2024/02/21 06:13:27;;;;;;;35.83;14.63;;;8.40;99.90;;;;;;5059766;28;20559;-72
2024/02/21 06:15:53;;;;;;;36.72;14.40;;;8.40;99.90;;;;;;5059482;28;20025;-71
2024/02/21 06:18:19;;;;;;;36.75;14.60;;;8.40;99.90;;;;;;5061262;28;20021;-73
2024/02/21 06:20:46;;;;;;;36.75;15.27;;;8.40;99.90;;;;;;5060732;28;20098;-71
2024/02/21 06:23:16;;;;;;;39.40;15.32;;;8.30;99.90;;;;;;5058185;28;20029;-73
2024/02/21 06:25:42;;;;;;;36.97;14.68;;;8.40;99.90;;;;;;5059426;28;20500;-71
2024/02/21 06:28:08;;;;;;;36.60;14.60;;;8.40;99.90;;;;;;5065319;28;20017;-69
2024/02/21 06:30:33;;;;;;;34.00;14.15;;;8.40;99.90;;;;;;5063321;28;20196;-71
2024/02/21 06:33:02;;;;;;;33.58;14.95;;;8.40;99.90;;;;;;5063086;28;20115;-70
2024/02/21 06:35:28;;;;;;;34.97;13.73;;;8.40;99.90;;;;;;5063219;28;20052;-72
2024/02/21 06:37:54;;;;;;;36.42;14.40;;;8.40;99.90;;;;;;5062138;28;20025;-69
2024/02/21 06:40:22;;;;;;;35.47;15.63;;;8.40;99.90;;;;;;5064209;28;20069;-71
2024/02/21 06:42:48;;;;;;;32.08;14.57;;;8.40;99.90;;;;;;5063195;28;20104;-74
2024/02/21 06:45:13;;;;;;;34.70;14.77;;;8.40;99.90;;;;;;5064436;28;20456;-69
2024/02/21 06:47:39;;;;;;;39.83;15.80;;;8.40;99.90;;;;;;5064864;28;20025;-71
2024/02/21 06:50:05;;;;;;;41.42;16.33;;;8.40;99.90;;;;;;5062642;28;20025;-72
2024/02/21 06:52:30;;;;;;;39.78;15.82;;;8.40;99.90;;;;;;5061650;28;20036;-73
2024/02/21 06:54:56;;;;;;;40.25;15.57;;;8.40;99.90;;;;;;5064479;28;20037;-73
2024/02/21 06:57:22;;;;;;;37.30;14.57;;;8.40;99.90;;;;;;5060392;28;20032;-73
2024/02/21 06:59:48;;;;;;;36.28;15.15;;;8.40;99.90;;;;;;5063634;28;20025;-71
2024/02/21 07:02:13;;;;;;;42.10;16.00;;;8.40;99.90;;;;;;5060670;28;20029;-72
2024/02/21 07:04:39;;;;;;;43.67;15.88;;;8.40;99.90;;;;;;5061760;28;20024;-70
2024/02/21 07:07:04;;;;;;;41.05;16.88;;;8.40;99.90;;;;;;5062659;28;20046;-71
2024/02/21 07:09:31;;;;;;;40.58;16.52;;;8.40;99.90;;;;;;5062582;28;20049;-69
2024/02/21 07:11:58;;;;;;;42.50;17.85;;;8.40;99.90;;;;;;5061226;28;20143;-71
2024/02/21 07:14:23;;;;;;;47.75;18.98;;;8.40;99.90;;;;;;5058332;28;20051;-70
2024/02/21 07:16:51;;;;;;;48.03;18.27;;;8.40;99.90;;;;;;5061460;28;20029;-71
2024/02/21 07:19:17;;;;;;;53.67;18.88;;;8.40;99.90;;;;;;5062755;28;20036;-72
2024/02/21 07:21:42;;;;;;;47.53;19.48;;;8.40;99.90;;;;;;5063034;28;20029;-72
2024/02/21 07:24:08;;;;;;;51.15;17.95;;;8.40;99.90;;;;;;5063672;28;20032;-69
2024/02/21 07:26:34;;;;;;;50.42;18.05;;;8.40;99.90;;;;;;5057973;28;20036;-71
2024/02/21 07:29:00;;;;;;;47.70;17.17;;;8.40;99.90;;;;;;5060300;28;20041;-72
2024/02/21 07:31:25;;;;;;;48.00;17.88;;;8.50;99.90;;;;;;5059056;28;20081;-71
2024/02/21 07:33:51;;;;;;;44.65;16.55;;;8.40;99.90;;;;;;5059259;28;20087;-71
2024/02/21 07:36:30;;;;;;;50.53;17.77;;;8.40;99.90;;;;;;5063213;28;20024;-71
2024/02/21 07:38:56;;;;;;;41.55;14.93;;;8.50;99.90;;;;;;5060863;28;20035;-69
2024/02/21 07:41:21;;;;;;;41.97;16.63;;;8.50;99.90;;;;;;5060355;28;20057;-69
2024/02/21 07:43:48;;;;;;;42.92;17.30;;;8.50;99.90;;;;;;5060901;28;20025;-70
2024/02/21 07:46:14;;;;;;;37.47;15.20;;;8.50;99.90;;;;;;5063385;28;20059;-70
2024/02/21 07:48:40;;;;;;;43.00;16.88;;;8.50;99.90;;;;;;5063541;28;20025;-69
2024/02/21 07:51:05;;;;;;;40.83;17.02;;;8.50;99.90;;;;;;5062582;28;20146;-70
2024/02/21 07:53:31;;;;;;;44.33;18.00;;;8.50;99.90;;;;;;5063118;28;20041;-70
2024/02/21 07:55:56;;;;;;;45.28;15.85;;;8.50;99.90;;;;;;5062114;28;20025;-71
2024/02/21 07:58:22;;;;;;;51.88;19.77;;;8.50;99.90;;;;;;5059368;28;20390;-72
2024/02/21 08:00:48;;;;;;;55.63;19.83;;;8.50;99.90;;;;;;5062998;28;20029;-72
2024/02/21 08:03:15;;;;;;;50.20;19.60;;;8.50;99.90;;;;;;5061665;28;20031;-71
2024/02/21 08:05:41;;;;;;;56.60;20.50;;;8.50;99.90;;;;;;5061840;28;20025;-73
2024/02/21 08:08:08;;;;;;;56.63;19.23;;;8.50;99.90;;;;;;5059809;28;20045;-72
2024/02/21 08:10:33;;;;;;;61.70;20.73;;;8.50;99.90;;;;;;5058812;28;20072;-72
2024/02/21 08:12:59;;;;;;;54.67;22.48;;;8.60;99.90;;;;;;5059838;28;20693;-72
2024/02/21 08:15:28;;;;;;;64.18;23.08;;;8.50;99.90;;;;;;5058708;28;20049;-72
2024/02/21 08:17:58;;;;;;;63.30;22.83;;;8.50;99.90;;;;;;5061847;28;20432;-74
2024/02/21 08:20:24;;;;;;;64.85;22.48;;;8.60;99.90;;;;;;5062309;28;20037;-73
2024/02/21 08:22:50;;;;;;;68.43;24.83;;;8.60;99.90;;;;;;5060703;28;20046;-71
2024/02/21 08:25:15;;;;;;;67.85;24.52;;;8.60;99.90;;;;;;5060861;28;20025;-72
2024/02/21 08:27:41;;;;;;;64.22;23.67;;;8.60;99.90;;;;;;5058832;28;20049;-73
2024/02/21 08:30:07;;;;;;;73.05;24.17;;;8.70;99.90;;;;;;5062346;28;20017;-73
2024/02/21 08:32:35;;;;;;;79.75;24.85;;;8.70;99.90;;;;;;5060381;28;20025;-74
2024/02/21 08:35:00;;;;;;;59.15;22.10;;;8.70;99.90;;;;;;5061888;28;20029;-72
2024/02/21 08:37:27;;;;;;;65.80;25.10;;;8.70;99.90;;;;;;5062386;28;20108;-70
2024/02/21 08:39:53;;;;;;;71.70;24.65;;;8.70;99.90;;;;;;5062412;28;20054;-72
2024/02/21 08:42:18;;;;;;;78.50;25.42;;;8.70;99.90;;;;;;5062673;28;20074;-71
2024/02/21 08:44:44;;;;;;;83.28;26.52;;;8.80;99.90;;;;;;5059314;28;20083;-72
2024/02/21 08:47:10;;;;;;;70.40;25.33;;;8.80;99.90;;;;;;5062381;28;20041;-73
2024/02/21 08:49:35;;;;;;;70.30;25.25;;;8.80;99.90;;;;;;5062381;28;20021;-73
2024/02/21 08:52:02;;;;;;;69.22;25.48;;;8.80;99.90;;;;;;5058079;28;20021;-72
2024/02/21 08:54:28;;;;;;;75.38;28.15;;;8.70;99.90;;;;;;5054459;28;20086;-70
2024/02/21 08:56:54;;;;;;;72.07;25.27;;;8.80;99.90;;;;;;5056777;28;20139;-72
2024/02/21 08:59:20;;;;;;;64.93;26.17;;;8.90;99.90;;;;;;5053358;28;20029;-75
2024/02/21 09:01:46;;;;;;;89.15;32.22;;;8.90;99.90;;;;;;5058430;28;20044;-71
2024/02/21 09:04:12;;;;;;;85.18;30.08;;;9.00;99.90;;;;;;5061088;28;20029;-72
2024/02/21 09:06:41;;;;;;;74.20;31.70;;;9.00;99.90;;;;;;5059970;28;20020;-74
2024/02/21 09:09:09;;;;;;;76.47;29.35;;;9.10;99.90;;;;;;5060576;28;20053;-73
2024/02/21 09:11:35;;;;;;;75.53;29.85;;;9.10;99.90;;;;;;5055840;28;20027;-72
2024/02/21 09:14:01;;;;;;;73.78;29.85;;;9.20;99.90;;;;;;5056699;28;20527;-69
2024/02/21 09:16:26;;;;;;;72.43;28.67;;;9.20;99.90;;;;;;5057310;28;20626;-72
2024/02/21 09:18:52;;;;;;;62.78;25.20;;;9.20;99.90;;;;;;5059220;28;20021;-70
2024/02/21 09:21:18;;;;;;;65.80;28.75;;;9.20;99.90;;;;;;5058922;28;20119;-71
2024/02/21 09:23:45;;;;;;;72.63;28.35;;;9.30;99.90;;;;;;5056354;28;20093;-68
2024/02/21 09:26:13;;;;;;;59.63;25.38;;;9.30;99.90;;;;;;5057151;28;20025;-71
2024/02/21 09:28:39;;;;;;;59.80;25.38;;;9.30;99.90;;;;;;5059933;28;20025;-69
2024/02/21 09:31:05;;;;;;;66.32;26.80;;;9.30;99.90;;;;;;5061631;28;20051;-72
2024/02/21 09:33:37;;;;;;;59.13;25.58;;;9.30;99.90;;;;;;5052558;28;20041;-72
2024/02/21 09:36:05;;;;;;;64.13;24.23;;;9.20;99.90;;;;;;5058468;28;20143;-72
2024/02/21 09:38:32;;;;;;;61.17;21.88;;;9.20;99.90;;;;;;5055356;28;20024;-72
2024/02/21 09:41:18;;;;;;;57.78;24.23;;;9.20;99.90;;;;;;5060786;28;20048;-72
2024/02/21 09:43:50;;;;;;;57.20;22.58;;;9.10;99.90;;;;;;5055803;28;20033;-72
2024/02/21 09:46:20;;;;;;;58.28;23.27;;;9.10;99.90;;;;;;5054828;28;20446;-71
2024/02/21 09:49:14;;;;;;;64.10;22.05;;;9.10;99.90;;;;;;5059737;28;20040;-71
2024/02/21 09:51:49;;;;;;;50.10;20.77;;;9.10;99.90;;;;;;5057863;28;20033;-70
2024/02/21 09:54:14;;;;;;;59.15;23.27;;;9.10;99.90;;;;;;5056698;28;20074;-71
2024/02/21 09:56:45;;;;;;;58.58;23.52;;;9.00;99.90;;;;;;5060607;28;20096;-72
2024/02/21 09:59:11;;;;;;;62.42;24.60;;;9.00;99.90;;;;;;5057176;28;20017;-70
2024/02/21 10:01:36;;;;;;;60.50;25.67;;;9.00;99.90;;;;;;5059712;28;20126;-71
2024/02/21 10:04:02;;;;;;;57.15;22.75;;;9.00;99.90;;;;;;5063216;28;20051;-72
2024/02/21 10:06:28;;;;;;;48.05;20.35;;;8.90;99.90;;;;;;5060336;28;20025;-70
2024/02/21 10:08:54;;;;;;;55.13;23.20;;;8.90;99.90;;;;;;5062630;28;20079;-70
2024/02/21 10:11:24;;;;;;;52.60;21.90;;;8.90;99.90;;;;;;5061889;28;20107;-72
2024/02/21 10:13:49;;;;;;;49.90;19.98;;;8.90;99.90;;;;;;5059883;28;20044;-72
2024/02/21 10:16:15;;;;;;;47.45;21.50;;;9.00;99.90;;;;;;5062291;28;20025;-71
2024/02/21 10:18:41;;;;;;;49.25;22.23;;;8.90;99.90;;;;;;5064134;28;20076;-70
2024/02/21 10:21:07;;;;;;;53.28;21.10;;;8.90;99.90;;;;;;5063988;28;20158;-71
2024/02/21 10:23:44;;;;;;;60.13;21.38;;;8.90;99.90;;;;;;5063525;28;20032;-70
2024/02/21 10:26:09;;;;;;;48.40;21.55;;;8.90;99.90;;;;;;5062171;28;20040;-69
2024/02/21 10:28:35;;;;;;;47.85;19.48;;;8.90;99.90;;;;;;5062344;28;20029;-70
2024/02/21 10:31:00;;;;;;;52.55;20.50;;;8.90;99.90;;;;;;5064082;28;20040;-69
2024/02/21 10:33:28;;;;;;;48.05;21.27;;;8.90;99.90;;;;;;5061838;28;20036;-70
2024/02/21 10:35:53;;;;;;;47.85;21.00;;;8.90;99.90;;;;;;5061437;28;20033;-69
2024/02/21 10:38:19;;;;;;;55.60;22.00;;;8.90;99.90;;;;;;5061962;28;20033;-70
2024/02/21 10:40:46;;;;;;;57.35;23.23;;;8.90;99.90;;;;;;5063243;28;20352;-70
2024/02/21 10:43:13;;;;;;;55.75;22.17;;;8.90;99.90;;;;;;5061975;28;20033;-70
2024/02/21 10:45:41;;;;;;;55.30;20.75;;;8.90;99.90;;;;;;5063341;28;20021;-69
2024/02/21 10:48:25;;;;;;;49.30;19.98;;;8.90;99.90;;;;;;5061949;28;20055;-69
2024/02/21 10:50:56;;;;;;;;;;;8.90;99.90;;;;;;5061524;28;20029;-70
2024/02/21 10:54:12;;;;;;;48.58;20.45;;;9.00;99.90;;;;;;5061367;28;20428;-68
2024/02/21 10:56:40;;;;;;;46.08;19.90;;;9.00;99.90;;;;;;5039322;28;20056;-69
2024/02/21 10:59:10;;;;;;;47.60;19.67;;;9.00;99.90;;;;;;5040886;28;20093;-68
2024/02/21 11:01:35;;;;;;;48.97;20.42;;;9.00;99.90;;;;;;5047412;28;20042;-71
2024/02/21 11:04:08;;;;;;;42.75;19.20;;;9.00;99.90;;;;;;5052555;28;20048;-71
2024/02/21 11:06:39;;;;;;;43.85;17.58;;;9.10;99.90;;;;;;5059136;28;20141;-69
2024/02/21 11:09:10;;;;;;;35.58;16.38;;;9.10;99.90;;;;;;5061045;28;20041;-68
2024/02/21 11:11:39;;;;;;;45.97;18.13;;;9.10;99.90;;;;;;5061544;28;20436;-69
2024/02/21 11:14:09;;;;;;;45.80;18.13;;;9.10;99.90;;;;;;5063629;28;20041;-69
2024/02/21 11:16:38;;;;;;;44.10;19.75;;;9.20;99.90;;;;;;5063138;28;20025;-72
2024/02/21 11:19:05;;;;;;;43.83;18.77;;;9.20;99.90;;;;;;5061379;28;20040;-68
2024/02/21 11:21:35;;;;;;;42.78;19.50;;;9.20;99.90;;;;;;5063698;28;20045;-68
2024/02/21 11:24:02;;;;;;;38.40;18.98;;;9.20;99.90;;;;;;5062080;28;20446;-69
2024/02/21 11:26:29;;;;;;;43.10;16.90;;;9.30;99.90;;;;;;5064081;28;20032;-70
2024/02/21 11:29:05;;;;;;;48.58;18.83;;;9.40;99.90;;;;;;5063391;28;20029;-71
2024/02/21 11:31:45;;;;;;;42.15;18.80;;;9.50;99.90;;;;;;5063473;28;20024;-71
2024/02/21 11:34:12;;;;;;;50.70;19.67;;;9.60;99.90;;;;;;5063976;28;20071;-70
2024/02/21 11:36:51;;;;;;;34.92;16.35;;;9.80;99.90;;;;;;5063066;28;20055;-73
2024/02/21 11:39:24;;;;;;;34.50;15.50;;;9.80;99.90;;;;;;5063875;28;20033;-70
2024/02/21 11:42:03;;;;;;;37.03;17.50;;;10.00;99.90;;;;;;5062124;28;20024;-71
2024/02/21 11:44:29;;;;;;;40.13;16.27;;;10.00;99.90;;;;;;5060840;28;20029;-71
2024/02/21 11:46:55;;;;;;;38.30;17.40;;;10.10;99.90;;;;;;5063543;28;20057;-69
2024/02/21 11:49:21;;;;;;;35.63;15.45;;;10.20;99.90;;;;;;5063467;28;20071;-71
2024/02/21 11:51:46;;;;;;;35.03;16.63;;;10.30;99.90;;;;;;5063383;28;20025;-70
2024/02/21 11:54:16;;;;;;;33.83;15.32;;;10.30;99.90;;;;;;5061895;28;20075;-70
2024/02/21 11:56:41;;;;;;;30.05;14.13;;;10.20;99.90;;;;;;5063542;28;20025;-69
2024/02/21 11:59:08;;;;;;;29.73;14.40;;;10.20;99.90;;;;;;5062934;28;20056;-72
2024/02/21 12:01:34;;;;;;;39.63;15.45;;;10.20;99.90;;;;;;5063112;28;20028;-71
2024/02/21 12:03:59;;;;;;;24.75;12.63;;;10.20;99.90;;;;;;5063199;28;20029;-70
2024/02/21 12:06:25;;;;;;;32.33;14.02;;;10.20;99.90;;;;;;5063088;28;20017;-71
2024/02/21 12:08:50;;;;;;;26.58;13.73;;;10.20;99.90;;;;;;5063034;28;20037;-70
2024/02/21 12:11:21;;;;;;;31.38;12.07;;;10.20;99.90;;;;;;5063206;28;20021;-71
2024/02/21 12:13:58;;;;;;;30.35;14.02;;;10.30;99.90;;;;;;5063026;28;20409;-70
2024/02/21 12:16:23;;;;;;;28.02;12.98;;;10.30;99.90;;;;;;5062614;28;20040;-70
2024/02/21 12:18:49;;;;;;;31.13;12.70;;;10.30;99.90;;;;;;5062807;28;20025;-70
2024/02/21 12:21:16;;;;;;;29.17;13.40;;;10.30;99.90;;;;;;5062955;28;20021;-70
2024/02/21 12:23:41;;;;;;;31.40;12.63;;;10.30;99.90;;;;;;5061224;28;20156;-70
2024/02/21 12:26:08;;;;;;;28.15;12.02;;;10.30;99.90;;;;;;5062270;28;20497;-71
2024/02/21 12:28:33;;;;;;;26.17;10.90;;;10.30;99.90;;;;;;5062827;28;20017;-69
2024/02/21 12:30:59;;;;;;;25.52;11.32;;;10.30;99.90;;;;;;5062900;28;20056;-70
2024/02/21 12:33:24;;;;;;;31.15;11.10;;;10.30;99.90;;;;;;5062303;28;20040;-71